Time;durP1;ratioP1;P1;durP2;ratioP2;P2;SDS_P1;SDS_P2;PMS_P1;PMS_P2;Temp;Humidity;BMP_temperature;BMP_pressure;BME280_temperature;BME280_humidity;BME280_pressure;Samples;Min_cycle;Max_cycle;Signal;HPM_P1;HPM_P2
2022/03/23 00:01:33;;;;;;;0.15;0.15;;;;;;;;;;4981911;28;20030;-82
2022/03/23 00:03:59;;;;;;;0.10;0.10;;;;;;;;;;4979949;28;20022;-83
2022/03/23 00:06:26;;;;;;;4.25;1.60;;;;;;;;;;4983920;28;20035;-81
2022/03/23 00:08:52;;;;;;;0.28;0.28;;;;;;;;;;4978522;28;20034;-79
2022/03/23 00:11:18;;;;;;;0.30;0.30;;;;;;;;;;4983448;28;20576;-79
2022/03/23 00:13:44;;;;;;;0.00;0.00;;;;;;;;;;4981784;28;20052;-80
2022/03/23 00:16:10;;;;;;;0.08;0.08;;;;;;;;;;4979917;28;20046;-80
2022/03/23 00:18:36;;;;;;;2.28;0.50;;;;;;;;;;4995857;28;20053;-83
2022/03/23 00:21:02;;;;;;;0.20;0.20;;;;;;;;;;4997322;28;20125;-83
2022/03/23 00:23:28;;;;;;;0.88;0.73;;;;;;;;;;4981808;28;20072;-83
2022/03/23 00:25:54;;;;;;;0.10;0.10;;;;;;;;;;4981723;28;20041;-84
2022/03/23 00:28:21;;;;;;;0.20;0.20;;;;;;;;;;4979997;28;20125;-81
2022/03/23 00:30:50;;;;;;;0.10;0.10;;;;;;;;;;4981553;28;20109;-80
2022/03/23 00:33:16;;;;;;;0.20;0.20;;;;;;;;;;4981994;28;20062;-80
2022/03/23 00:35:43;;;;;;;0.20;0.20;;;;;;;;;;4981940;28;20709;-80
2022/03/23 00:38:09;;;;;;;0.38;0.38;;;;;;;;;;4983193;28;20026;-82
2022/03/23 00:40:38;;;;;;;0.50;0.50;;;;;;;;;;4982904;28;20038;-82
2022/03/23 00:43:04;;;;;;;0.10;0.10;;;;;;;;;;4981438;28;20026;-81
2022/03/23 00:45:30;;;;;;;0.13;0.13;;;;;;;;;;4982455;28;20030;-81
2022/03/23 00:47:59;;;;;;;0.43;0.43;;;;;;;;;;4982354;28;20066;-81
2022/03/23 00:50:26;;;;;;;0.65;0.65;;;;;;;;;;4982051;28;20034;-81
2022/03/23 00:52:52;;;;;;;0.28;0.28;;;;;;;;;;4937676;28;1255425;-79
2022/03/23 00:55:18;;;;;;;0.40;0.40;;;;;;;;;;4981567;28;20038;-79
2022/03/23 00:57:45;;;;;;;0.10;0.10;;;;;;;;;;4982429;28;20096;-79
2022/03/23 01:00:13;;;;;;;0.40;0.40;;;;;;;;;;4984903;28;20117;-79
2022/03/23 01:02:40;;;;;;;1.35;1.00;;;;;;;;;;4979343;28;20300;-79
2022/03/23 01:05:08;;;;;;;0.20;0.20;;;;;;;;;;4981127;28;20088;-79
2022/03/23 01:07:34;;;;;;;0.13;0.13;;;;;;;;;;4982215;28;20042;-79
2022/03/23 01:10:00;;;;;;;0.10;0.10;;;;;;;;;;4981587;28;20033;-79
2022/03/23 01:12:27;;;;;;;0.20;0.20;;;;;;;;;;4985026;28;20042;-79
2022/03/23 01:14:53;;;;;;;0.10;0.10;;;;;;;;;;4981436;28;20060;-79
2022/03/23 01:17:19;;;;;;;1.67;0.75;;;;;;;;;;4980842;28;20022;-79
2022/03/23 01:19:45;;;;;;;0.20;0.20;;;;;;;;;;4981703;28;20105;-79
2022/03/23 01:22:11;;;;;;;0.43;0.17;;;;;;;;;;4995925;28;20022;-79
2022/03/23 01:24:38;;;;;;;0.52;0.52;;;;;;;;;;4980060;28;20472;-79
2022/03/23 01:27:04;;;;;;;0.00;0.00;;;;;;;;;;4983962;28;20611;-79
2022/03/23 01:29:30;;;;;;;0.10;0.10;;;;;;;;;;4983124;28;20340;-79
2022/03/23 01:31:56;;;;;;;0.30;0.20;;;;;;;;;;4983749;28;20520;-78
2022/03/23 01:34:23;;;;;;;0.20;0.20;;;;;;;;;;4982842;28;20038;-83
2022/03/23 01:36:49;;;;;;;0.00;0.00;;;;;;;;;;4981554;28;20046;-83
2022/03/23 01:39:15;;;;;;;1.05;0.70;;;;;;;;;;4983091;28;20426;-83
2022/03/23 01:41:41;;;;;;;1.27;1.17;;;;;;;;;;4997765;28;20034;-82
2022/03/23 01:44:19;;;;;;;0.05;0.05;;;;;;;;;;4981813;28;20038;-81
2022/03/23 01:47:04;;;;;;;0.60;0.55;;;;;;;;;;4979221;28;20179;-81
2022/03/23 01:49:30;;;;;;;0.32;0.32;;;;;;;;;;4980968;28;20022;-81
2022/03/23 01:51:56;;;;;;;0.20;0.20;;;;;;;;;;4981607;28;20052;-82
2022/03/23 01:54:22;;;;;;;0.00;0.00;;;;;;;;;;4979625;28;20050;-82
2022/03/23 01:56:49;;;;;;;0.10;0.10;;;;;;;;;;4980094;28;20064;-81
2022/03/23 01:59:16;;;;;;;0.20;0.20;;;;;;;;;;4980567;28;20030;-81
2022/03/23 02:01:43;;;;;;;0.20;0.20;;;;;;;;;;4980455;28;20552;-82
2022/03/23 02:04:09;;;;;;;;;;;;;;;;;;4981697;28;20065;-82
2022/03/23 02:06:35;;;;;;;0.30;0.30;;;;;;;;;;4983266;28;19949;-82
2022/03/23 02:09:01;;;;;;;0.55;0.55;;;;;;;;;;4997718;28;20038;-82
2022/03/23 02:11:29;;;;;;;0.30;0.30;;;;;;;;;;4983390;28;20089;-83
2022/03/23 02:13:55;;;;;;;0.40;0.30;;;;;;;;;;4981091;28;20589;-83
2022/03/23 02:16:21;;;;;;;0.20;0.20;;;;;;;;;;4977600;28;20807;-83
2022/03/23 02:18:47;;;;;;;0.10;0.10;;;;;;;;;;4978885;28;20034;-83
2022/03/23 02:21:14;;;;;;;0.30;0.30;;;;;;;;;;4980484;28;20050;-83
2022/03/23 02:23:40;;;;;;;0.00;0.00;;;;;;;;;;4978569;28;20027;-82
2022/03/23 02:26:07;;;;;;;0.50;0.50;;;;;;;;;;4980001;28;20149;-82
2022/03/23 02:28:34;;;;;;;0.00;0.00;;;;;;;;;;4979883;28;20034;-80
2022/03/23 02:31:01;;;;;;;0.00;0.00;;;;;;;;;;4979029;28;20706;-80
2022/03/23 02:33:28;;;;;;;1.13;1.02;;;;;;;;;;4980330;28;20117;-80
2022/03/23 02:35:54;;;;;;;0.73;0.73;;;;;;;;;;4996836;28;20054;-80
2022/03/23 02:38:20;;;;;;;0.27;0.27;;;;;;;;;;4982186;28;20027;-81
2022/03/23 02:40:47;;;;;;;0.30;0.30;;;;;;;;;;4982225;28;20807;-80
2022/03/23 02:43:13;;;;;;;1.10;0.70;;;;;;;;;;4980552;28;20026;-80
2022/03/23 02:45:39;;;;;;;0.60;0.60;;;;;;;;;;4979783;28;20129;-81
2022/03/23 02:48:06;;;;;;;0.17;0.17;;;;;;;;;;4979216;28;20293;-81
2022/03/23 02:50:33;;;;;;;2.35;0.88;;;;;;;;;;4978820;28;20816;-81
2022/03/23 03:04:10;;;;;;;0.35;0.35;;;;;;;;;;4980458;28;20049;-80
2022/03/23 03:06:36;;;;;;;1.88;0.70;;;;;;;;;;4978655;28;20038;-81
2022/03/23 03:09:02;;;;;;;0.20;0.20;;;;;;;;;;4979570;28;20042;-80
2022/03/23 03:11:28;;;;;;;0.67;0.67;;;;;;;;;;4979617;28;20033;-81
2022/03/23 03:13:55;;;;;;;0.60;0.60;;;;;;;;;;4979900;28;20549;-80
2022/03/23 03:16:21;;;;;;;0.33;0.33;;;;;;;;;;4977967;28;20070;-79
2022/03/23 03:18:47;;;;;;;0.55;0.55;;;;;;;;;;4983643;28;20062;-78
2022/03/23 03:21:13;;;;;;;0.13;0.13;;;;;;;;;;5002087;28;20030;-78
2022/03/23 03:23:41;;;;;;;0.88;0.20;;;;;;;;;;4984300;28;20030;-78
2022/03/23 03:26:08;;;;;;;1.23;0.65;;;;;;;;;;4985587;28;20092;-78
2022/03/23 03:28:35;;;;;;;0.20;0.20;;;;;;;;;;4997907;28;20042;-78
2022/03/23 03:31:05;;;;;;;0.20;0.20;;;;;;;;;;4985063;28;20112;-78
2022/03/23 03:33:31;;;;;;;0.17;0.17;;;;;;;;;;4983713;28;20096;-81
2022/03/23 03:35:57;;;;;;;0.57;0.57;;;;;;;;;;4998031;28;20042;-80
2022/03/23 03:38:23;;;;;;;0.10;0.10;;;;;;;;;;4981114;28;20041;-81
2022/03/23 03:40:49;;;;;;;0.23;0.23;;;;;;;;;;4981232;28;20494;-80
2022/03/23 03:43:16;;;;;;;0.10;0.10;;;;;;;;;;4981159;28;20037;-80
2022/03/23 03:45:43;;;;;;;0.13;0.13;;;;;;;;;;4981547;28;20160;-80
2022/03/23 03:48:09;;;;;;;0.20;0.20;;;;;;;;;;4982034;28;20038;-80
2022/03/23 03:50:35;;;;;;;0.00;0.00;;;;;;;;;;4997401;28;20113;-80
2022/03/23 03:53:01;;;;;;;0.00;0.00;;;;;;;;;;4984843;28;20050;-79
2022/03/23 03:55:27;;;;;;;0.40;0.40;;;;;;;;;;4982284;28;20106;-80
2022/03/23 03:57:54;;;;;;;0.10;0.10;;;;;;;;;;4984071;28;20065;-81
2022/03/23 04:00:20;;;;;;;0.90;0.65;;;;;;;;;;4985621;28;20034;-81
2022/03/23 04:02:46;;;;;;;0.10;0.10;;;;;;;;;;4982955;28;20030;-81
2022/03/23 04:05:12;;;;;;;0.00;0.00;;;;;;;;;;4984486;28;20455;-82
2022/03/23 04:07:38;;;;;;;0.17;0.17;;;;;;;;;;4986027;28;20069;-83
2022/03/23 04:10:05;;;;;;;0.03;0.03;;;;;;;;;;4986313;28;20034;-82
2022/03/23 04:12:31;;;;;;;0.20;0.20;;;;;;;;;;4985028;28;20034;-81
2022/03/23 04:14:58;;;;;;;0.37;0.37;;;;;;;;;;4986079;28;20074;-81
2022/03/23 04:17:24;;;;;;;0.10;0.10;;;;;;;;;;4985321;28;20052;-82
2022/03/23 04:19:50;;;;;;;4.65;1.20;;;;;;;;;;4984219;28;20053;-82
2022/03/23 04:22:16;;;;;;;0.10;0.10;;;;;;;;;;4984111;28;20049;-81
2022/03/23 04:24:42;;;;;;;0.17;0.17;;;;;;;;;;4983049;28;20044;-83
2022/03/23 04:27:08;;;;;;;0.00;0.00;;;;;;;;;;4985224;28;20034;-81
2022/03/23 04:29:34;;;;;;;0.63;0.63;;;;;;;;;;4983092;28;20036;-82
2022/03/23 04:32:00;;;;;;;0.00;0.00;;;;;;;;;;4983966;28;20034;-82
2022/03/23 04:34:26;;;;;;;0.80;0.57;;;;;;;;;;4984649;28;20038;-82
2022/03/23 04:36:53;;;;;;;0.20;0.20;;;;;;;;;;4983850;28;20053;-81
2022/03/23 04:39:19;;;;;;;0.20;0.20;;;;;;;;;;4986334;28;20038;-82
2022/03/23 04:41:45;;;;;;;0.17;0.17;;;;;;;;;;4984230;28;20056;-82
2022/03/23 04:44:11;;;;;;;0.65;0.55;;;;;;;;;;4983170;28;20037;-81
2022/03/23 04:46:38;;;;;;;0.32;0.32;;;;;;;;;;4983665;28;20045;-81
2022/03/23 04:49:04;;;;;;;0.20;0.20;;;;;;;;;;4984306;28;20172;-82
2022/03/23 04:51:31;;;;;;;0.20;0.20;;;;;;;;;;4984837;28;20042;-81
2022/03/23 04:53:57;;;;;;;0.20;0.20;;;;;;;;;;4983062;28;20502;-81
2022/03/23 04:56:23;;;;;;;0.45;0.45;;;;;;;;;;4983602;28;20096;-80
2022/03/23 04:58:49;;;;;;;0.20;0.20;;;;;;;;;;4984751;28;20026;-80
2022/03/23 05:01:15;;;;;;;0.43;0.43;;;;;;;;;;4984628;28;20034;-80
2022/03/23 05:03:42;;;;;;;0.13;0.13;;;;;;;;;;4984413;28;20026;-80
2022/03/23 05:06:08;;;;;;;1.35;1.13;;;;;;;;;;4983472;28;20026;-81
2022/03/23 05:08:34;;;;;;;0.30;0.30;;;;;;;;;;4984714;28;20117;-83
2022/03/23 05:11:00;;;;;;;1.88;1.38;;;;;;;;;;4982195;28;20113;-82
2022/03/23 05:13:26;;;;;;;0.17;0.17;;;;;;;;;;4981473;28;20030;-82
2022/03/23 05:15:52;;;;;;;0.70;0.70;;;;;;;;;;4979581;28;20312;-82
2022/03/23 05:18:18;;;;;;;0.15;0.15;;;;;;;;;;4995875;28;20034;-82
2022/03/23 05:20:45;;;;;;;0.52;0.52;;;;;;;;;;4979671;28;20049;-82
2022/03/23 05:23:11;;;;;;;0.22;0.22;;;;;;;;;;4980245;28;20027;-81
2022/03/23 05:25:37;;;;;;;0.33;0.33;;;;;;;;;;4979046;28;20072;-83
2022/03/23 05:28:06;;;;;;;0.10;0.10;;;;;;;;;;4979905;28;20509;-85
2022/03/23 05:30:32;;;;;;;0.35;0.35;;;;;;;;;;4981794;28;20062;-85
2022/03/23 05:32:58;;;;;;;0.10;0.10;;;;;;;;;;4996787;28;20034;-84
2022/03/23 05:35:24;;;;;;;0.22;0.22;;;;;;;;;;4982231;28;20038;-84
2022/03/23 05:37:50;;;;;;;0.67;0.67;;;;;;;;;;4983365;28;20038;-82
2022/03/23 05:40:17;;;;;;;0.80;0.65;;;;;;;;;;4978445;28;20352;-84
2022/03/23 05:42:43;;;;;;;0.70;0.70;;;;;;;;;;4982669;28;20034;-83
2022/03/23 05:45:10;;;;;;;0.22;0.22;;;;;;;;;;4981636;28;20088;-84
2022/03/23 05:47:37;;;;;;;0.08;0.08;;;;;;;;;;4983100;28;20076;-82
2022/03/23 05:50:03;;;;;;;0.43;0.43;;;;;;;;;;4982575;28;20501;-82
2022/03/23 05:52:29;;;;;;;0.25;0.25;;;;;;;;;;4980816;28;20624;-81
2022/03/23 05:54:56;;;;;;;0.25;0.20;;;;;;;;;;4979978;28;20047;-80
2022/03/23 05:57:22;;;;;;;0.60;0.60;;;;;;;;;;4982678;28;20034;-80
2022/03/23 05:59:48;;;;;;;0.20;0.20;;;;;;;;;;4980353;28;20034;-81
2022/03/23 06:02:15;;;;;;;0.30;0.30;;;;;;;;;;4979895;28;20116;-81
2022/03/23 06:04:41;;;;;;;0.57;0.57;;;;;;;;;;4995223;28;20644;-78
2022/03/23 06:07:07;;;;;;;0.88;0.85;;;;;;;;;;4980158;28;20038;-78
2022/03/23 06:09:34;;;;;;;0.75;0.75;;;;;;;;;;4983094;28;20037;-79
2022/03/23 06:12:01;;;;;;;3.83;0.85;;;;;;;;;;4998034;28;20410;-79
2022/03/23 06:14:27;;;;;;;0.22;0.22;;;;;;;;;;4980987;28;20041;-81
2022/03/23 06:16:54;;;;;;;0.77;0.70;;;;;;;;;;4981161;28;20610;-78
2022/03/23 06:19:20;;;;;;;0.35;0.35;;;;;;;;;;4980332;28;20869;-81
2022/03/23 06:21:46;;;;;;;0.20;0.20;;;;;;;;;;4983216;28;20046;-81
2022/03/23 06:24:12;;;;;;;0.00;0.00;;;;;;;;;;4995211;28;20033;-79
2022/03/23 06:26:38;;;;;;;0.82;0.43;;;;;;;;;;4980340;28;20038;-84
2022/03/23 06:29:05;;;;;;;0.73;0.40;;;;;;;;;;4980786;28;20038;-79
2022/03/23 06:31:31;;;;;;;0.93;0.93;;;;;;;;;;4981760;28;20034;-80
2022/03/23 06:33:57;;;;;;;0.10;0.10;;;;;;;;;;4978438;28;20034;-79
2022/03/23 06:36:23;;;;;;;0.43;0.33;;;;;;;;;;4980647;28;20413;-80
2022/03/23 06:38:50;;;;;;;0.23;0.23;;;;;;;;;;4978195;28;20269;-79
2022/03/23 06:41:16;;;;;;;;;;;;;;;;;;4980567;28;20038;-80
2022/03/23 06:43:42;;;;;;;0.47;0.47;;;;;;;;;;4980281;28;19917;-79
2022/03/23 06:46:08;;;;;;;0.47;0.47;;;;;;;;;;4981187;28;20038;-79
2022/03/23 06:48:34;;;;;;;0.23;0.23;;;;;;;;;;4983140;28;20042;-80
2022/03/23 06:51:00;;;;;;;1.40;0.73;;;;;;;;;;4982413;28;20053;-81
2022/03/23 06:53:26;;;;;;;0.20;0.20;;;;;;;;;;4987928;28;20308;-81
2022/03/23 06:55:52;;;;;;;0.20;0.20;;;;;;;;;;4985968;28;20327;-82
2022/03/23 06:58:19;;;;;;;0.10;0.10;;;;;;;;;;4989665;28;20050;-81
2022/03/23 07:00:45;;;;;;;0.28;0.28;;;;;;;;;;4986303;28;20038;-85
2022/03/23 07:03:11;;;;;;;0.50;0.50;;;;;;;;;;5000287;28;20057;-81
2022/03/23 07:05:37;;;;;;;0.28;0.28;;;;;;;;;;4999823;28;20058;-80
2022/03/23 07:10:50;;;;;;;0.75;0.75;;;;;;;;;;4983739;28;20657;-79
2022/03/23 07:13:16;;;;;;;0.65;0.60;;;;;;;;;;4984532;28;20148;-79
2022/03/23 07:15:47;;;;;;;0.35;0.35;;;;;;;;;;4986499;28;20030;-80
2022/03/23 07:18:13;;;;;;;0.30;0.30;;;;;;;;;;4984533;28;20027;-79
2022/03/23 07:20:39;;;;;;;0.22;0.22;;;;;;;;;;4984920;28;20360;-80
2022/03/23 07:23:05;;;;;;;0.80;0.80;;;;;;;;;;4985388;28;20112;-80
2022/03/23 07:25:31;;;;;;;0.10;0.10;;;;;;;;;;4985048;28;20033;-79
2022/03/23 07:27:58;;;;;;;0.27;0.27;;;;;;;;;;4984818;28;20274;-80
2022/03/23 07:30:25;;;;;;;0.25;0.22;;;;;;;;;;4982550;28;20082;-79
2022/03/23 07:32:52;;;;;;;;;;;;;;;;;;4986259;28;20073;-79
2022/03/23 07:35:18;;;;;;;0.65;0.47;;;;;;;;;;4982170;28;19980;-80
2022/03/23 07:37:44;;;;;;;0.47;0.40;;;;;;;;;;4985974;28;20049;-80
2022/03/23 07:40:11;;;;;;;0.10;0.10;;;;;;;;;;4988546;28;20034;-80
2022/03/23 07:42:37;;;;;;;0.47;0.47;;;;;;;;;;4986186;28;20141;-82
2022/03/23 07:45:03;;;;;;;0.22;0.22;;;;;;;;;;4990370;28;20639;-80
2022/03/23 07:47:29;;;;;;;0.30;0.30;;;;;;;;;;4985396;28;20576;-80
2022/03/23 07:49:55;;;;;;;0.80;0.80;;;;;;;;;;4984519;28;20473;-81
2022/03/23 07:52:21;;;;;;;0.10;0.10;;;;;;;;;;4986897;28;20045;-80
2022/03/23 07:54:47;;;;;;;0.25;0.25;;;;;;;;;;4983643;28;20034;-80
2022/03/23 07:57:14;;;;;;;0.00;0.00;;;;;;;;;;5001481;28;20038;-81
2022/03/23 07:59:40;;;;;;;0.75;0.43;;;;;;;;;;4984036;28;20032;-80
2022/03/23 08:02:06;;;;;;;1.00;0.55;;;;;;;;;;4984801;28;20429;-80
2022/03/23 08:04:32;;;;;;;0.35;0.35;;;;;;;;;;4985213;28;20030;-81
2022/03/23 08:07:02;;;;;;;0.40;0.40;;;;;;;;;;4981779;28;20117;-80
2022/03/23 08:09:28;;;;;;;0.47;0.20;;;;;;;;;;4997034;28;20030;-80
2022/03/23 08:11:56;;;;;;;2.28;0.90;;;;;;;;;;4983918;28;20430;-80
2022/03/23 08:14:22;;;;;;;0.10;0.10;;;;;;;;;;4983958;28;20413;-80
2022/03/23 08:16:48;;;;;;;0.13;0.13;;;;;;;;;;4983843;28;20061;-81
2022/03/23 08:19:14;;;;;;;0.60;0.35;;;;;;;;;;4983827;28;20594;-81
2022/03/23 08:21:40;;;;;;;1.20;0.60;;;;;;;;;;4985239;28;20069;-81
2022/03/23 08:24:06;;;;;;;0.30;0.30;;;;;;;;;;5000031;28;20042;-80
2022/03/23 08:26:32;;;;;;;0.20;0.20;;;;;;;;;;4983988;28;20038;-80
2022/03/23 08:28:58;;;;;;;0.20;0.20;;;;;;;;;;4983911;28;20089;-80
2022/03/23 08:31:24;;;;;;;0.77;0.63;;;;;;;;;;4983564;28;20033;-80
2022/03/23 08:33:50;;;;;;;0.10;0.10;;;;;;;;;;4982579;28;20049;-81
2022/03/23 08:36:16;;;;;;;3.22;0.73;;;;;;;;;;5000119;28;20137;-80
2022/03/23 08:38:43;;;;;;;0.30;0.30;;;;;;;;;;4983384;28;20109;-80
2022/03/23 08:41:09;;;;;;;0.50;0.50;;;;;;;;;;4983022;28;20038;-81
2022/03/23 08:43:35;;;;;;;0.20;0.20;;;;;;;;;;4983315;28;20035;-80
2022/03/23 08:46:01;;;;;;;0.32;0.25;;;;;;;;;;4983868;28;20042;-81
2022/03/23 08:48:27;;;;;;;0.95;0.70;;;;;;;;;;4985524;28;20034;-81
2022/03/23 08:50:53;;;;;;;1.77;0.30;;;;;;;;;;4982986;28;20050;-80
2022/03/23 08:53:20;;;;;;;0.08;0.08;;;;;;;;;;4982616;28;20046;-81
2022/03/23 08:55:46;;;;;;;0.80;0.52;;;;;;;;;;4982496;28;20046;-81
2022/03/23 08:58:12;;;;;;;;;;;;;;;;;;4983783;28;20034;-81
2022/03/23 09:00:40;;;;;;;0.20;0.20;;;;;;;;;;4984437;28;19914;-81
2022/03/23 09:03:06;;;;;;;0.10;0.10;;;;;;;;;;4981957;28;20036;-81
2022/03/23 09:05:32;;;;;;;0.47;0.47;;;;;;;;;;4983408;28;20030;-81
2022/03/23 09:08:01;;;;;;;16.23;0.80;;;;;;;;;;4981932;28;20093;-85
2022/03/23 09:10:28;;;;;;;0.85;0.75;;;;;;;;;;4983529;28;20178;-86
2022/03/23 09:12:54;;;;;;;1.05;0.38;;;;;;;;;;4984055;28;20027;-84
2022/03/23 09:15:20;;;;;;;0.50;0.50;;;;;;;;;;4984044;28;20038;-86
2022/03/23 09:17:47;;;;;;;3.65;1.30;;;;;;;;;;4981628;28;20030;-85
2022/03/23 09:20:13;;;;;;;0.10;0.10;;;;;;;;;;4981416;28;20541;-86
2022/03/23 09:22:40;;;;;;;0.10;0.10;;;;;;;;;;4982997;28;20034;-86
2022/03/23 09:25:08;;;;;;;0.30;0.30;;;;;;;;;;4966949;28;20417;-85
2022/03/23 09:27:35;;;;;;;0.10;0.10;;;;;;;;;;4981152;28;20125;-85
2022/03/23 09:30:02;;;;;;;1.85;0.70;;;;;;;;;;4982542;28;20422;-86
2022/03/23 09:32:28;;;;;;;;;;;;;;;;;;4983296;28;20453;-86
2022/03/23 09:34:54;;;;;;;0.15;0.15;;;;;;;;;;4981478;28;19925;-85
2022/03/23 09:40:06;;;;;;;0.20;0.20;;;;;;;;;;4977548;28;20425;-85
2022/03/23 09:42:32;;;;;;;0.28;0.28;;;;;;;;;;4982298;28;20517;-85
2022/03/23 09:44:59;;;;;;;6.05;0.63;;;;;;;;;;4996277;28;20022;-85
2022/03/23 09:47:25;;;;;;;0.35;0.32;;;;;;;;;;4981044;28;20105;-86
2022/03/23 09:49:51;;;;;;;0.32;0.32;;;;;;;;;;4980132;28;20030;-85
2022/03/23 09:52:18;;;;;;;0.25;0.25;;;;;;;;;;4982527;28;20038;-86
2022/03/23 09:54:45;;;;;;;0.20;0.20;;;;;;;;;;4980038;28;20050;-80
2022/03/23 09:57:11;;;;;;;0.85;0.85;;;;;;;;;;4982596;28;20112;-79
2022/03/23 09:59:38;;;;;;;1.55;0.75;;;;;;;;;;4981062;28;20035;-79
2022/03/23 10:02:04;;;;;;;3.28;0.50;;;;;;;;;;4980846;28;20026;-79
2022/03/23 10:04:49;;;;;;;0.22;0.20;;;;;;;;;;4980116;28;20529;-81
2022/03/23 10:07:15;;;;;;;0.63;0.63;;;;;;;;;;4979797;28;20047;-80
2022/03/23 10:10:01;;;;;;;0.20;0.20;;;;;;;;;;4983058;28;20037;-80
2022/03/23 10:12:36;;;;;;;0.20;0.20;;;;;;;;;;4976991;28;20128;-80
2022/03/23 10:15:21;;;;;;;0.30;0.30;;;;;;;;;;4980906;28;20194;-80
2022/03/23 10:18:06;;;;;;;0.70;0.50;;;;;;;;;;4981614;28;20031;-80
2022/03/23 10:20:32;;;;;;;0.10;0.10;;;;;;;;;;4979997;28;20125;-80
2022/03/23 10:22:58;;;;;;;0.50;0.50;;;;;;;;;;4980531;28;20117;-80
2022/03/23 10:25:28;;;;;;;0.17;0.13;;;;;;;;;;4980730;28;20061;-79
2022/03/23 10:27:58;;;;;;;3.08;1.40;;;;;;;;;;4979085;28;20290;-79
2022/03/23 10:30:37;;;;;;;0.40;0.40;;;;;;;;;;4983198;28;20141;-79
2022/03/23 10:33:03;;;;;;;0.17;0.17;;;;;;;;;;4981320;28;20049;-80
2022/03/23 10:35:37;;;;;;;0.30;0.30;;;;;;;;;;4981462;28;20071;-80
2022/03/23 10:38:14;;;;;;;0.52;0.52;;;;;;;;;;4979665;28;20037;-80
2022/03/23 10:40:41;;;;;;;0.55;0.40;;;;;;;;;;4978930;28;20101;-80
2022/03/23 10:43:07;;;;;;;1.50;1.08;;;;;;;;;;4979061;28;20035;-80
2022/03/23 10:45:33;;;;;;;0.32;0.32;;;;;;;;;;4983408;28;20117;-80
2022/03/23 10:48:10;;;;;;;0.77;0.77;;;;;;;;;;4980152;28;20105;-80
2022/03/23 10:50:36;;;;;;;0.40;0.40;;;;;;;;;;4981315;28;20337;-79
2022/03/23 10:53:03;;;;;;;0.50;0.45;;;;;;;;;;4981376;28;20034;-80
2022/03/23 10:55:32;;;;;;;0.40;0.40;;;;;;;;;;4981776;28;20038;-80
2022/03/23 10:58:01;;;;;;;0.50;0.50;;;;;;;;;;4981396;28;20494;-80
2022/03/23 11:00:29;;;;;;;1.55;0.80;;;;;;;;;;4983980;28;20151;-80
2022/03/23 11:02:55;;;;;;;0.63;0.57;;;;;;;;;;4981955;28;20031;-78
2022/03/23 11:05:38;;;;;;;0.32;0.32;;;;;;;;;;4982771;28;20030;-80
2022/03/23 11:08:07;;;;;;;0.52;0.52;;;;;;;;;;4975108;28;20034;-81
2022/03/23 11:16:07;;;;;;;0.22;0.22;;;;;;;;;;4974685;28;20112;-82
2022/03/23 11:18:33;;;;;;;0.40;0.30;;;;;;;;;;4982495;28;20121;-81
2022/03/23 11:21:00;;;;;;;0.45;0.45;;;;;;;;;;4977896;28;20105;-81
2022/03/23 11:23:26;;;;;;;0.28;0.28;;;;;;;;;;4980950;28;20022;-80
2022/03/23 11:25:53;;;;;;;0.73;0.57;;;;;;;;;;4981540;28;20486;-81
2022/03/23 11:28:20;;;;;;;0.85;0.85;;;;;;;;;;4979605;28;20054;-81
2022/03/23 11:30:47;;;;;;;0.57;0.57;;;;;;;;;;4979595;28;20038;-81
2022/03/23 11:33:16;;;;;;;0.38;0.38;;;;;;;;;;4982834;28;20044;-81
2022/03/23 11:35:47;;;;;;;1.15;1.05;;;;;;;;;;4982072;28;20050;-81
2022/03/23 11:38:14;;;;;;;0.30;0.30;;;;;;;;;;4983673;28;20038;-81
2022/03/23 11:40:44;;;;;;;0.10;0.10;;;;;;;;;;5001673;28;20037;-81
2022/03/23 11:43:11;;;;;;;0.20;0.20;;;;;;;;;;4982875;28;20066;-81
2022/03/23 11:45:37;;;;;;;;;;;;;;;;;;4984693;28;20034;-81
2022/03/23 11:48:09;;;;;;;0.57;0.40;;;;;;;;;;4984187;28;19929;-81
2022/03/23 11:50:41;;;;;;;0.50;0.50;;;;;;;;;;4981971;28;20073;-81
2022/03/23 11:53:20;;;;;;;0.35;0.35;;;;;;;;;;4983642;28;20077;-81
2022/03/23 11:55:50;;;;;;;1.17;0.75;;;;;;;;;;4983758;28;20053;-81
2022/03/23 11:58:22;;;;;;;0.22;0.22;;;;;;;;;;4983811;28;20032;-80
2022/03/23 12:00:51;;;;;;;0.17;0.17;;;;;;;;;;4982086;28;20066;-83
2022/03/23 12:03:36;;;;;;;0.45;0.43;;;;;;;;;;5000067;28;20054;-80
2022/03/23 12:06:09;;;;;;;0.50;0.50;;;;;;;;;;4978539;28;20593;-81
2022/03/23 12:08:57;;;;;;;0.20;0.20;;;;;;;;;;4974060;28;20080;-81
2022/03/23 12:11:38;;;;;;;0.50;0.50;;;;;;;;;;4974895;28;20125;-81
2022/03/23 12:14:06;;;;;;;0.55;0.55;;;;;;;;;;4974837;28;20034;-81
2022/03/23 12:16:47;;;;;;;0.30;0.30;;;;;;;;;;4974646;28;20544;-81
2022/03/23 12:19:19;;;;;;;0.55;0.55;;;;;;;;;;4981205;28;20026;-81
2022/03/23 12:21:51;;;;;;;6.13;0.65;;;;;;;;;;4972539;28;20081;-81
2022/03/23 12:24:37;;;;;;;0.43;0.43;;;;;;;;;;4979635;28;20772;-81
2022/03/23 12:27:06;;;;;;;0.73;0.50;;;;;;;;;;4986490;28;20192;-82
2022/03/23 12:29:37;;;;;;;0.28;0.28;;;;;;;;;;4981666;28;20019;-82
2022/03/23 12:32:08;;;;;;;0.30;0.30;;;;;;;;;;4987354;28;20447;-82
2022/03/23 12:34:35;;;;;;;0.85;0.43;;;;;;;;;;4985285;28;20062;-81
2022/03/23 12:37:07;;;;;;;0.55;0.55;;;;;;;;;;4994739;28;20131;-81
2022/03/23 12:39:37;;;;;;;0.10;0.10;;;;;;;;;;4969732;28;20046;-81
2022/03/23 12:42:12;;;;;;;0.52;0.30;;;;;;;;;;4975416;28;20027;-82
2022/03/23 12:44:39;;;;;;;0.13;0.13;;;;;;;;;;4979052;28;20074;-82
2022/03/23 12:47:05;;;;;;;;;;;;;;;;;;4994071;28;20037;-84
2022/03/23 12:58:24;;;;;;;0.20;0.20;;;;;;;;;;4972313;28;20418;-80
2022/03/23 13:00:51;;;;;;;0.28;0.28;;;;;;;;;;4981373;28;20118;-81
2022/03/23 13:03:18;;;;;;;0.35;0.35;;;;;;;;;;4998547;28;20038;-81
2022/03/23 13:05:44;;;;;;;;;;;;;;;;;;4983034;28;20044;-80
2022/03/23 13:08:27;;;;;;;0.25;0.25;;;;;;;;;;4982822;28;20304;-86
2022/03/23 13:11:13;;;;;;;0.40;0.40;;;;;;;;;;4983332;28;20049;-89
2022/03/23 13:13:40;;;;;;;0.38;0.38;;;;;;;;;;4987971;28;20105;-88
2022/03/23 13:16:06;;;;;;;;;;;;;;;;;;4982054;28;20164;-86
2022/03/23 13:18:34;;;;;;;0.50;0.50;;;;;;;;;;4999868;28;20388;-86
2022/03/23 13:21:00;;;;;;;0.22;0.20;;;;;;;;;;4981642;28;20076;-86
2022/03/23 13:23:26;;;;;;;0.38;0.38;;;;;;;;;;4994499;28;20027;-87
2022/03/23 13:26:13;;;;;;;0.33;0.20;;;;;;;;;;4981809;28;20042;-86
2022/03/23 13:28:40;;;;;;;3.45;2.03;;;;;;;;;;4979650;28;20797;-84
2022/03/23 13:31:07;;;;;;;0.10;0.10;;;;;;;;;;4981823;28;20065;-86
2022/03/23 13:33:50;;;;;;;1.45;0.77;;;;;;;;;;4982765;28;20038;-87
2022/03/23 13:36:17;;;;;;;0.35;0.35;;;;;;;;;;4997224;28;20540;-87
2022/03/23 13:38:47;;;;;;;0.20;0.20;;;;;;;;;;4982311;28;20057;-86
2022/03/23 13:43:59;;;;;;;0.20;0.20;;;;;;;;;;4974684;28;20873;-87
2022/03/23 13:46:26;;;;;;;1.23;0.45;;;;;;;;;;4982761;28;20056;-87
2022/03/23 13:48:52;;;;;;;;;;;;;;;;;;4982592;28;20030;-90
2022/03/23 13:51:19;;;;;;;0.15;0.15;;;;;;;;;;4991761;28;20280;-90
2022/03/23 13:53:48;;;;;;;0.55;0.32;;;;;;;;;;4975234;28;20088;-88
2022/03/23 13:56:17;;;;;;;0.22;0.22;;;;;;;;;;4976558;28;20043;-88
2022/03/23 13:58:44;;;;;;;0.30;0.20;;;;;;;;;;4979044;28;20042;-89
2022/03/23 14:01:11;;;;;;;0.20;0.20;;;;;;;;;;4978823;28;20041;-83
2022/03/23 14:03:37;;;;;;;1.45;0.43;;;;;;;;;;4983757;28;20026;-89
2022/03/23 14:06:03;;;;;;;0.47;0.47;;;;;;;;;;4976927;28;20035;-85
2022/03/23 14:08:31;;;;;;;0.47;0.47;;;;;;;;;;4975308;28;20068;-89
2022/03/23 14:10:58;;;;;;;0.40;0.40;;;;;;;;;;4978092;28;20027;-88
2022/03/23 14:13:28;;;;;;;0.38;0.38;;;;;;;;;;4989166;28;20034;-89
2022/03/23 14:15:55;;;;;;;0.57;0.43;;;;;;;;;;4995790;28;20056;-87
2022/03/23 14:18:22;;;;;;;1.00;0.38;;;;;;;;;;4976685;28;20109;-91
2022/03/23 14:20:53;;;;;;;0.10;0.10;;;;;;;;;;4991781;28;20038;-89
2022/03/23 14:23:20;;;;;;;0.47;0.43;;;;;;;;;;4985232;28;20040;-89
2022/03/23 14:25:49;;;;;;;0.17;0.17;;;;;;;;;;4993952;28;20030;-89
2022/03/23 14:28:20;;;;;;;0.10;0.10;;;;;;;;;;4996487;28;20097;-90
2022/03/23 14:30:55;;;;;;;0.43;0.38;;;;;;;;;;4980520;28;20203;-86
2022/03/23 14:33:22;;;;;;;0.40;0.30;;;;;;;;;;4999799;28;20038;-89
2022/03/23 14:35:49;;;;;;;0.30;0.30;;;;;;;;;;4986675;28;20177;-88
2022/03/23 14:38:16;;;;;;;0.30;0.30;;;;;;;;;;4980496;28;20902;-91
2022/03/23 14:40:56;;;;;;;0.13;0.13;;;;;;;;;;4981655;28;20038;-90
2022/03/23 14:43:32;;;;;;;0.30;0.30;;;;;;;;;;4978204;28;20030;-91
2022/03/23 14:45:59;;;;;;;0.68;0.52;;;;;;;;;;4983907;28;20081;-92
2022/03/23 14:48:30;;;;;;;0.63;0.63;;;;;;;;;;4985022;28;20080;-90
2022/03/23 14:50:57;;;;;;;0.32;0.32;;;;;;;;;;4984362;28;20798;-89
2022/03/23 14:53:27;;;;;;;1.42;1.15;;;;;;;;;;4982657;28;20506;-90
2022/03/23 14:55:54;;;;;;;0.30;0.30;;;;;;;;;;4982535;28;20077;-90
2022/03/23 14:58:24;;;;;;;1.75;0.88;;;;;;;;;;4981437;28;20126;-89
2022/03/23 15:00:50;;;;;;;0.40;0.40;;;;;;;;;;4999238;28;20030;-86
2022/03/23 15:03:17;;;;;;;0.93;0.82;;;;;;;;;;4982899;28;20041;-85
2022/03/23 15:13:58;;;;;;;1.23;0.75;;;;;;;;;;4982021;28;20054;-83
2022/03/23 15:16:24;;;;;;;0.10;0.10;;;;;;;;;;4984916;28;22664;-84
2022/03/23 15:18:50;;;;;;;0.30;0.30;;;;;;;;;;4997124;28;20566;-83
2022/03/23 15:21:19;;;;;;;0.30;0.30;;;;;;;;;;4984364;28;20765;-83
2022/03/23 15:23:48;;;;;;;0.40;0.40;;;;;;;;;;4982029;28;20041;-83
2022/03/23 15:26:17;;;;;;;0.45;0.32;;;;;;;;;;4982750;28;20054;-83
2022/03/23 15:28:43;;;;;;;5.47;0.63;;;;;;;;;;4977799;28;20034;-83
2022/03/23 15:31:09;;;;;;;0.73;0.73;;;;;;;;;;4984040;28;20104;-84